Albion, Iowa
Current Conditions -  °F | °C
As of 3:53 PM on Wednesday 22 Oct 2014 (Local Time) from KMIW Reporting Station
Broken Clouds Broken Clouds  
Wind Chill: 61°   Ceiling: 6000
Heat Index: 61°   Visibility: 10mi
Dew Point: 43°   Wind: 15mph
Humidity: 52%   Direction: 150°SSE
Pressure: 30.15"   Gusts: NA
Location:  42.11°N, 92.99°W
Report Text: KMIW 222053Z AUTO 15013KT 10SM FEW039 BKN060 BKN075 16/06 A3015 RMK AO2 SLP211 T01610061 56020
Loading
Personal Weather Stations






























Interactive Weather Map
Tropical Storm Tracking
New forecast layout! Learn more

10-Day Weather Forecast

Advertisements
Track Severe Weather on mobile